Time;durP1;ratioP1;P1;durP2;ratioP2;P2;SDS_P1;SDS_P2;PMS_P1;PMS_P2;Temp;Humidity;BMP_temperature;BMP_pressure;BME280_temperature;BME280_humidity;BME280_pressure;Samples;Min_cycle;Max_cycle;Signal;HPM_P1;HPM_P2
2022/07/03 00:00:01;;;;;;;4.50;1.97;;;20.50;99.90;;;;;;5014546;28;20468;-70
2022/07/03 00:02:27;;;;;;;3.20;2.07;;;20.40;99.90;;;;;;5009418;28;20460;-70
2022/07/03 00:04:54;;;;;;;3.20;1.97;;;20.30;99.90;;;;;;5012319;28;20953;-71
2022/07/03 00:07:22;;;;;;;2.20;1.90;;;20.30;99.90;;;;;;5008862;28;20502;-70
2022/07/03 00:09:49;;;;;;;4.57;2.27;;;20.60;99.90;;;;;;5017570;28;20832;-71
2022/07/03 00:12:18;;;;;;;3.33;2.23;;;20.70;99.90;;;;;;5012566;28;20480;-71
2022/07/03 00:14:44;;;;;;;3.80;2.00;;;20.70;99.90;;;;;;5016985;28;20463;-71
2022/07/03 00:17:12;;;;;;;3.50;1.80;;;20.50;99.90;;;;;;5011619;28;20803;-70
2022/07/03 00:19:39;;;;;;;2.60;2.40;;;20.40;99.90;;;;;;5017116;28;20465;-71
2022/07/03 00:22:10;;;;;;;3.97;1.67;;;20.30;99.90;;;;;;5013527;28;20973;-70
2022/07/03 00:24:44;;;;;;;1.97;1.70;;;20.10;99.90;;;;;;5013608;28;20456;-72
2022/07/03 00:27:12;;;;;;;2.73;2.53;;;20.00;99.90;;;;;;5013720;28;20486;-72
2022/07/03 00:29:43;;;;;;;4.17;2.00;;;20.00;99.90;;;;;;5009873;28;20477;-71
2022/07/03 00:32:13;;;;;;;2.33;2.03;;;19.70;99.90;;;;;;5012587;28;20569;-71
2022/07/03 00:34:41;;;;;;;1.97;1.87;;;19.60;99.90;;;;;;5012678;28;20564;-72
2022/07/03 00:37:10;;;;;;;2.67;2.30;;;19.40;99.90;;;;;;5018825;28;20481;-72
2022/07/03 00:39:38;;;;;;;3.13;1.93;;;19.30;99.90;;;;;;5017249;28;20460;-72
2022/07/03 00:42:06;;;;;;;2.40;2.20;;;19.40;99.90;;;;;;5008153;28;20558;-72
2022/07/03 00:44:35;;;;;;;2.40;1.83;;;19.40;99.90;;;;;;5016350;28;20563;-72
2022/07/03 00:47:05;;;;;;;4.40;2.00;;;19.40;99.90;;;;;;5016598;28;20516;-72
2022/07/03 00:49:35;;;;;;;3.17;2.07;;;19.40;99.90;;;;;;5011532;28;20468;-71
2022/07/03 00:52:05;;;;;;;4.20;2.40;;;19.30;99.90;;;;;;5017172;28;20473;-72
2022/07/03 00:54:35;;;;;;;2.10;1.93;;;19.20;99.90;;;;;;5008958;28;20572;-72
2022/07/03 00:57:03;;;;;;;2.07;1.73;;;19.10;99.90;;;;;;5017248;28;20489;-72
2022/07/03 00:59:30;;;;;;;2.73;2.53;;;19.30;99.90;;;;;;5013814;28;20439;-72
2022/07/03 01:02:06;;;;;;;3.60;2.27;;;19.40;99.90;;;;;;5011832;28;20492;-72
2022/07/03 01:04:40;;;;;;;3.30;2.23;;;19.50;99.90;;;;;;5008768;28;20648;-71
2022/07/03 01:07:13;;;;;;;2.47;1.77;;;19.40;99.90;;;;;;5009834;28;20491;-72
2022/07/03 01:10:01;;;;;;;5.03;2.50;;;19.30;99.90;;;;;;5012868;28;20823;-72
2022/07/03 01:12:38;;;;;;;5.23;2.63;;;19.00;99.90;;;;;;5011249;28;20691;-72
2022/07/03 01:15:12;;;;;;;4.20;2.60;;;19.00;99.90;;;;;;5010618;28;20487;-73
2022/07/03 01:17:47;;;;;;;2.67;2.03;;;19.20;99.90;;;;;;5015337;28;20452;-73
2022/07/03 01:20:15;;;;;;;2.40;2.00;;;19.10;99.90;;;;;;5007628;28;20796;-73
2022/07/03 01:22:45;;;;;;;3.03;2.20;;;19.10;99.90;;;;;;5007027;28;20464;-73
2022/07/03 01:25:17;;;;;;;3.50;2.70;;;18.90;99.90;;;;;;5015048;28;20499;-73
2022/07/03 01:28:03;;;;;;;4.50;2.30;;;18.60;99.90;;;;;;5010581;28;20453;-73
2022/07/03 01:30:32;;;;;;;2.07;1.97;;;18.70;99.90;;;;;;5003264;28;20469;-73
2022/07/03 01:33:03;;;;;;;3.10;2.37;;;18.50;99.90;;;;;;5019444;28;20460;-73
2022/07/03 01:35:34;;;;;;;2.27;2.10;;;18.50;99.90;;;;;;5017577;28;20480;-73
2022/07/03 01:38:08;;;;;;;2.70;1.90;;;18.30;99.90;;;;;;5013752;28;20452;-73
2022/07/03 01:40:38;;;;;;;2.43;2.23;;;18.10;99.90;;;;;;5013515;28;20461;-73
2022/07/03 01:43:08;;;;;;;4.80;2.10;;;18.20;99.90;;;;;;5016154;28;20850;-73
2022/07/03 01:45:39;;;;;;;2.00;1.63;;;18.20;99.90;;;;;;5013050;28;20480;-73
2022/07/03 01:48:08;;;;;;;4.33;2.27;;;18.30;99.90;;;;;;5009146;28;20849;-73
2022/07/03 01:50:37;;;;;;;4.30;2.30;;;18.20;99.90;;;;;;5010264;28;20479;-72
2022/07/03 01:53:06;;;;;;;2.17;1.97;;;18.10;99.90;;;;;;5013157;28;20463;-72
2022/07/03 01:55:34;;;;;;;2.60;2.20;;;18.10;99.90;;;;;;5004349;28;20607;-72
2022/07/03 01:58:01;;;;;;;2.53;2.00;;;18.00;99.90;;;;;;5009167;28;20453;-71
2022/07/03 02:00:31;;;;;;;2.97;2.30;;;17.90;99.90;;;;;;5011697;28;20450;-71
2022/07/03 02:03:00;;;;;;;4.00;2.17;;;17.90;99.90;;;;;;5015150;28;20461;-71
2022/07/03 02:05:37;;;;;;;4.37;2.40;;;17.90;99.90;;;;;;5006150;28;20750;-72
2022/07/03 02:08:25;;;;;;;3.20;2.27;;;17.90;99.90;;;;;;5020116;28;20476;-72
2022/07/03 02:11:03;;;;;;;4.10;2.10;;;18.00;99.90;;;;;;5003674;28;20475;-72
2022/07/03 02:13:32;;;;;;;3.83;1.90;;;18.00;99.90;;;;;;5003971;28;20467;-72
2022/07/03 02:16:02;;;;;;;5.23;2.60;;;18.00;99.90;;;;;;5010116;28;20462;-72
2022/07/03 02:18:30;;;;;;;3.13;2.80;;;17.80;99.90;;;;;;5012895;28;20512;-72
2022/07/03 02:21:05;;;;;;;2.30;2.07;;;17.60;99.90;;;;;;5005715;28;20474;-71
2022/07/03 02:23:36;;;;;;;2.57;2.37;;;17.60;99.90;;;;;;5007088;28;20468;-72
2022/07/03 02:26:06;;;;;;;2.63;2.17;;;17.40;99.90;;;;;;5011252;28;20459;-72
2022/07/03 02:28:51;;;;;;;5.20;2.23;;;17.30;99.90;;;;;;5009880;28;20575;-72
2022/07/03 02:31:22;;;;;;;2.30;2.00;;;17.30;99.90;;;;;;5007552;28;20468;-73
2022/07/03 02:33:50;;;;;;;3.10;2.40;;;17.60;99.90;;;;;;5016906;28;20467;-72
2022/07/03 02:36:22;;;;;;;2.50;1.93;;;17.70;99.90;;;;;;5013516;28;20511;-72
2022/07/03 02:38:56;;;;;;;2.67;2.20;;;17.80;99.90;;;;;;5011499;28;20446;-72
2022/07/03 02:41:29;;;;;;;2.20;2.00;;;17.90;99.90;;;;;;4992170;28;20595;-72
2022/07/03 02:44:00;;;;;;;2.50;2.23;;;17.90;99.90;;;;;;5012292;28;20576;-72
2022/07/03 02:46:51;;;;;;;3.40;2.23;;;17.80;99.90;;;;;;5003580;28;22322;-72
2022/07/03 02:49:32;;;;;;;4.13;3.17;;;17.60;99.90;;;;;;5001353;28;20477;-72
2022/07/03 02:52:09;;;;;;;2.70;2.50;;;17.50;99.90;;;;;;5001750;28;20469;-72
2022/07/03 02:54:45;;;;;;;3.57;2.60;;;17.60;99.90;;;;;;5009684;28;20490;-72
2022/07/03 02:57:13;;;;;;;2.90;2.40;;;17.70;99.90;;;;;;5009574;28;20980;-72
2022/07/03 02:59:50;;;;;;;2.70;2.50;;;17.70;99.90;;;;;;5007719;28;20532;-72
2022/07/03 03:02:32;;;;;;;2.73;2.30;;;17.70;99.90;;;;;;5001305;28;20526;-72
2022/07/03 03:05:01;;;;;;;2.30;2.10;;;17.70;99.90;;;;;;5014856;28;21091;-72
2022/07/03 03:07:35;;;;;;;6.07;2.53;;;17.80;99.90;;;;;;5003597;28;20455;-72
2022/07/03 03:10:02;;;;;;;3.73;2.37;;;17.80;99.90;;;;;;5016876;28;20818;-72
2022/07/03 03:12:32;;;;;;;2.50;2.10;;;17.70;99.90;;;;;;5017251;28;20476;-72
2022/07/03 03:15:03;;;;;;;3.83;2.50;;;17.70;99.90;;;;;;5014738;28;20484;-72
2022/07/03 03:17:40;;;;;;;4.33;2.87;;;17.50;99.90;;;;;;5015652;28;20453;-71
2022/07/03 03:20:09;;;;;;;5.00;2.30;;;17.30;99.90;;;;;;5017584;28;20691;-72
2022/07/03 03:22:48;;;;;;;5.70;2.77;;;17.40;99.90;;;;;;5012553;28;20501;-71
2022/07/03 03:25:16;;;;;;;2.80;2.40;;;17.00;99.90;;;;;;5020511;28;20455;-72
2022/07/03 03:27:43;;;;;;;3.80;2.40;;;16.80;99.90;;;;;;5017784;28;20455;-72
2022/07/03 03:30:10;;;;;;;3.10;2.37;;;17.00;99.90;;;;;;5015729;28;21696;-72
2022/07/03 03:32:40;;;;;;;3.67;2.40;;;17.30;99.90;;;;;;5017193;28;23987;-72
2022/07/03 03:35:08;;;;;;;4.20;3.03;;;17.40;99.90;;;;;;5017635;28;20495;-72
2022/07/03 03:37:35;;;;;;;2.77;2.20;;;17.40;99.90;;;;;;5014595;28;20459;-72
2022/07/03 03:40:03;;;;;;;2.30;2.10;;;17.50;99.90;;;;;;5012301;28;20523;-72
2022/07/03 03:42:30;;;;;;;2.40;2.20;;;17.30;99.90;;;;;;5008247;28;20431;-72
2022/07/03 03:44:57;;;;;;;2.90;2.33;;;17.40;99.90;;;;;;5015479;28;20459;-71
2022/07/03 03:47:25;;;;;;;3.20;2.90;;;17.50;99.90;;;;;;5011132;28;20837;-72
2022/07/03 03:49:53;;;;;;;4.67;2.53;;;17.60;99.90;;;;;;5019335;28;20543;-72
2022/07/03 03:52:20;;;;;;;4.10;2.27;;;17.50;99.90;;;;;;5015937;28;20461;-71
2022/07/03 03:54:47;;;;;;;2.60;2.27;;;17.50;99.90;;;;;;5009272;28;20489;-72
2022/07/03 03:57:21;;;;;;;2.80;2.60;;;17.40;99.90;;;;;;5011311;28;20858;-72
2022/07/03 03:59:48;;;;;;;2.73;2.50;;;17.60;99.90;;;;;;5007792;28;20453;-72
2022/07/03 04:02:15;;;;;;;2.57;2.37;;;17.70;99.90;;;;;;5019229;28;20464;-72
2022/07/03 04:04:42;;;;;;;2.73;2.37;;;17.90;99.90;;;;;;5006991;28;21022;-72
2022/07/03 04:07:10;;;;;;;2.90;2.30;;;17.80;99.90;;;;;;5006638;28;21014;-72
2022/07/03 04:09:37;;;;;;;2.53;2.27;;;18.00;99.90;;;;;;5014868;28;20463;-72
2022/07/03 04:12:05;;;;;;;3.17;2.87;;;18.00;99.90;;;;;;5009790;28;20476;-71
2022/07/03 04:14:31;;;;;;;2.53;2.33;;;18.00;99.90;;;;;;5010699;28;20477;-71
2022/07/03 04:16:58;;;;;;;2.13;1.70;;;18.00;99.90;;;;;;5015665;28;20477;-72
2022/07/03 04:19:26;;;;;;;5.10;2.67;;;18.00;99.90;;;;;;5011867;28;20449;-72
2022/07/03 04:21:53;;;;;;;3.97;1.90;;;18.10;99.90;;;;;;5021194;28;20472;-72
2022/07/03 04:24:21;;;;;;;3.00;2.20;;;18.10;99.90;;;;;;5022077;28;20928;-72
2022/07/03 04:26:48;;;;;;;2.83;2.23;;;18.10;99.90;;;;;;5010132;28;20493;-73
2022/07/03 04:29:15;;;;;;;3.43;2.53;;;18.20;99.90;;;;;;5014788;28;20499;-72
2022/07/03 04:31:42;;;;;;;3.40;2.13;;;18.10;99.90;;;;;;5014364;28;20475;-72
2022/07/03 04:34:09;;;;;;;2.50;2.30;;;17.80;99.90;;;;;;5012142;28;20499;-72
2022/07/03 04:36:36;;;;;;;3.63;2.47;;;17.90;99.90;;;;;;5015588;28;20509;-72
2022/07/03 04:39:03;;;;;;;3.27;2.90;;;18.10;99.90;;;;;;5012582;28;20552;-72
2022/07/03 04:41:31;;;;;;;3.70;2.87;;;18.20;99.90;;;;;;5014661;28;20654;-72
2022/07/03 04:43:58;;;;;;;3.20;2.40;;;18.40;99.90;;;;;;5006832;28;20467;-72
2022/07/03 04:46:24;;;;;;;3.03;2.50;;;18.40;99.90;;;;;;5015494;28;24623;-72
2022/07/03 04:48:51;;;;;;;6.80;2.40;;;18.60;99.90;;;;;;5012927;28;20680;-72
2022/07/03 04:51:18;;;;;;;3.43;2.97;;;18.80;99.90;;;;;;5015499;28;27454;-72
2022/07/03 04:53:47;;;;;;;8.73;2.70;;;19.10;99.90;;;;;;5017592;28;20460;-72
2022/07/03 04:56:13;;;;;;;2.47;2.27;;;19.30;99.90;;;;;;5039593;22;20506;-73
2022/07/03 04:58:42;;;;;;;3.30;2.40;;;19.50;99.90;;;;;;5049471;28;20478;-74
2022/07/03 05:01:09;;;;;;;2.87;2.40;;;19.70;99.90;;;;;;5047828;28;20470;-73
2022/07/03 05:03:36;;;;;;;4.13;2.90;;;19.80;99.90;;;;;;5048701;28;20482;-73
2022/07/03 05:06:02;;;;;;;3.50;2.07;;;20.00;99.90;;;;;;5043939;28;20485;-73
2022/07/03 05:08:29;;;;;;;3.90;2.40;;;20.00;99.90;;;;;;5035874;28;20479;-72
2022/07/03 05:10:56;;;;;;;3.10;2.90;;;20.10;99.90;;;;;;5046097;28;20459;-72
2022/07/03 05:13:23;;;;;;;4.37;3.77;;;20.10;99.90;;;;;;5041186;28;21086;-75
2022/07/03 05:15:51;;;;;;;2.57;2.20;;;20.10;99.90;;;;;;5045775;28;21257;-72
2022/07/03 05:18:18;;;;;;;4.60;2.73;;;20.20;99.90;;;;;;5046574;28;20479;-73
2022/07/03 05:20:45;;;;;;;3.70;2.63;;;20.40;99.90;;;;;;5052987;28;20444;-72
2022/07/03 05:23:12;;;;;;;2.70;2.50;;;20.50;99.90;;;;;;5051428;28;20798;-73
2022/07/03 05:25:39;;;;;;;3.80;2.37;;;20.80;99.90;;;;;;5043114;28;20476;-73
2022/07/03 05:28:06;;;;;;;5.00;2.53;;;21.40;99.90;;;;;;5047000;28;20470;-73
2022/07/03 05:30:33;;;;;;;4.23;2.50;;;22.10;99.90;;;;;;5040302;28;20462;-73
2022/07/03 05:33:01;;;;;;;3.87;2.63;;;22.50;99.90;;;;;;5037561;28;20464;-72
2022/07/03 05:35:28;;;;;;;2.97;2.67;;;22.70;99.90;;;;;;5039444;28;20476;-73
2022/07/03 05:37:54;;;;;;;5.00;2.40;;;23.20;99.90;;;;;;5045600;28;20862;-73
2022/07/03 05:40:21;;;;;;;3.17;2.70;;;23.80;99.90;;;;;;5040188;28;20939;-73
2022/07/03 05:42:48;;;;;;;3.43;2.10;;;24.10;99.90;;;;;;5049964;28;20594;-73
2022/07/03 05:45:15;;;;;;;2.80;2.17;;;24.40;99.90;;;;;;5043311;28;20887;-73
2022/07/03 05:47:42;;;;;;;4.57;2.33;;;24.70;99.90;;;;;;5048968;28;20463;-74
2022/07/03 05:50:11;;;;;;;2.60;2.20;;;25.00;99.90;;;;;;5050694;28;20482;-73
2022/07/03 05:52:38;;;;;;;2.67;2.30;;;24.60;99.90;;;;;;5052366;28;20459;-74
2022/07/03 05:55:05;;;;;;;5.67;2.53;;;24.10;99.90;;;;;;5048798;28;20564;-73
2022/07/03 05:57:32;;;;;;;4.43;3.10;;;23.70;99.90;;;;;;5051793;28;20471;-73
2022/07/03 05:59:59;;;;;;;3.30;3.00;;;23.50;99.90;;;;;;5057434;28;20471;-73
2022/07/03 06:02:26;;;;;;;4.43;2.73;;;23.20;99.90;;;;;;5054386;28;20469;-73
2022/07/03 06:04:53;;;;;;;4.90;3.40;;;22.60;99.90;;;;;;5052965;28;20459;-73
2022/07/03 06:07:21;;;;;;;4.50;2.90;;;22.40;99.90;;;;;;5046914;28;20995;-73
2022/07/03 06:09:49;;;;;;;3.00;2.70;;;22.20;99.90;;;;;;5044046;28;20476;-73
2022/07/03 06:12:15;;;;;;;3.70;2.97;;;21.80;99.90;;;;;;5050912;28;20981;-73
2022/07/03 06:14:42;;;;;;;5.10;3.07;;;22.00;99.90;;;;;;5051713;28;20477;-74
2022/07/03 06:17:09;;;;;;;6.93;3.37;;;22.20;99.90;;;;;;5046056;28;20494;-72
2022/07/03 06:19:36;;;;;;;4.70;2.87;;;22.60;99.90;;;;;;5043821;28;20546;-74
2022/07/03 06:22:03;;;;;;;6.47;3.00;;;23.30;99.90;;;;;;5040960;28;20459;-73
2022/07/03 06:24:31;;;;;;;4.37;3.40;;;23.90;99.90;;;;;;5043573;28;20477;-72
2022/07/03 06:26:58;;;;;;;4.13;2.60;;;24.30;99.90;;;;;;5023849;28;20479;-73
2022/07/03 06:29:25;;;;;;;4.60;3.20;;;24.50;99.90;;;;;;5038360;28;20502;-73
2022/07/03 06:31:52;;;;;;;4.23;3.10;;;24.70;99.90;;;;;;5047749;28;20470;-73
2022/07/03 06:34:19;;;;;;;5.37;3.30;;;24.80;99.90;;;;;;5058807;28;20475;-73
2022/07/03 06:36:46;;;;;;;6.57;3.60;;;24.70;99.90;;;;;;5047442;28;20495;-73
2022/07/03 06:39:13;;;;;;;8.80;3.37;;;24.70;99.90;;;;;;5050308;28;20563;-73
2022/07/03 06:41:41;;;;;;;9.30;3.10;;;25.30;99.90;;;;;;5048472;28;20842;-73
2022/07/03 06:44:08;;;;;;;11.87;3.23;;;25.40;99.90;;;;;;5047466;28;20455;-73
2022/07/03 06:46:35;;;;;;;6.57;3.33;;;25.60;99.90;;;;;;5037900;28;20480;-73
2022/07/03 06:49:01;;;;;;;5.07;3.10;;;25.60;99.90;;;;;;5039708;28;20494;-73
2022/07/03 06:51:28;;;;;;;3.90;2.77;;;25.90;99.90;;;;;;5039183;28;20459;-73
2022/07/03 06:53:55;;;;;;;8.40;2.90;;;26.00;99.90;;;;;;5057221;28;20691;-73
2022/07/03 06:56:22;;;;;;;6.13;3.40;;;26.40;99.90;;;;;;5059620;28;20486;-73
2022/07/03 06:58:50;;;;;;;4.60;3.13;;;26.30;99.90;;;;;;5056362;28;20459;-73
2022/07/03 07:01:17;;;;;;;5.80;3.10;;;26.40;99.90;;;;;;5055349;28;20455;-73
2022/07/03 07:03:44;;;;;;;3.30;2.63;;;26.50;99.90;;;;;;5047040;28;20956;-73
2022/07/03 07:06:11;;;;;;;3.73;3.13;;;26.80;99.90;;;;;;5056156;28;20479;-73
2022/07/03 07:08:37;;;;;;;4.00;2.80;;;26.80;99.90;;;;;;5058930;28;20455;-72
2022/07/03 07:11:04;;;;;;;5.73;3.40;;;27.00;99.90;;;;;;5054510;28;20463;-73
2022/07/03 07:13:31;;;;;;;4.87;4.40;;;27.60;99.90;;;;;;5057104;28;20469;-72
2022/07/03 07:15:59;;;;;;;5.37;3.63;;;27.60;99.90;;;;;;5051085;28;21113;-72
2022/07/03 07:18:26;;;;;;;6.33;3.90;;;27.30;99.90;;;;;;5057759;28;20827;-72
2022/07/03 07:20:53;;;;;;;4.03;3.17;;;27.50;99.90;;;;;;5057050;28;20824;-73
2022/07/03 07:23:20;;;;;;;7.13;4.13;;;27.30;99.90;;;;;;5058284;28;20455;-73
2022/07/03 07:25:46;;;;;;;3.80;2.67;;;27.10;99.90;;;;;;5064647;28;20540;-73
2022/07/03 07:28:13;;;;;;;6.13;4.17;;;27.40;99.90;;;;;;5059566;28;20468;-73
2022/07/03 07:30:40;;;;;;;6.23;2.83;;;26.90;99.90;;;;;;5058095;28;20479;-72
2022/07/03 07:33:09;;;;;;;4.77;3.17;;;26.70;99.90;;;;;;5063906;28;20455;-74
2022/07/03 07:35:36;;;;;;;4.93;2.67;;;26.40;99.90;;;;;;5056302;28;20494;-74
2022/07/03 07:38:03;;;;;;;4.47;2.90;;;26.60;99.90;;;;;;5056067;28;20456;-73
2022/07/03 07:40:30;;;;;;;7.50;3.00;;;27.20;99.90;;;;;;5045655;28;20465;-73
2022/07/03 07:42:57;;;;;;;3.87;3.47;;;27.40;99.90;;;;;;5059626;28;20462;-73
2022/07/03 07:45:23;;;;;;;3.40;3.10;;;27.70;99.40;;;;;;5059818;28;20475;-73
2022/07/03 07:47:50;;;;;;;4.47;4.07;;;28.20;97.80;;;;;;5061287;28;20557;-73
2022/07/03 07:50:19;;;;;;;4.30;3.00;;;28.30;99.00;;;;;;5050725;28;20486;-73
2022/07/03 07:52:45;;;;;;;4.33;2.97;;;28.60;98.30;;;;;;5047296;28;20765;-73
2022/07/03 07:55:12;;;;;;;3.70;3.30;;;28.10;99.00;;;;;;5058065;28;20479;-74
2022/07/03 07:57:40;;;;;;;4.03;2.80;;;29.00;98.20;;;;;;5056734;28;20577;-74
2022/07/03 08:00:09;;;;;;;4.10;2.70;;;29.80;95.80;;;;;;5055115;28;20808;-73
2022/07/03 08:05:37;;;;;;;4.87;3.07;;;30.20;95.20;;;;;;5053964;28;20443;-74
2022/07/03 08:08:05;;;;;;;4.53;3.63;;;30.90;93.50;;;;;;5065228;28;20460;-74
2022/07/03 08:10:36;;;;;;;3.53;2.90;;;31.00;93.00;;;;;;5061557;28;20624;-73
2022/07/03 08:13:04;;;;;;;4.10;3.20;;;31.40;92.30;;;;;;5052770;28;20464;-73
2022/07/03 08:15:30;;;;;;;3.00;2.67;;;30.70;91.80;;;;;;5054703;28;20489;-73
2022/07/03 08:17:57;;;;;;;5.53;4.10;;;30.60;91.60;;;;;;5061619;28;20459;-74
2022/07/03 08:20:26;;;;;;;7.60;3.60;;;31.40;90.30;;;;;;5058088;28;20794;-74
2022/07/03 08:22:53;;;;;;;4.27;2.87;;;31.60;89.50;;;;;;5057900;28;20974;-73
2022/07/03 08:25:20;;;;;;;4.57;3.03;;;31.20;88.20;;;;;;5058233;28;20452;-73
2022/07/03 08:27:46;;;;;;;2.43;2.20;;;31.10;87.30;;;;;;5053934;28;20464;-74
2022/07/03 08:30:17;;;;;;;4.23;3.10;;;31.30;87.40;;;;;;5044403;28;20486;-75
2022/07/03 08:32:45;;;;;;;5.30;3.57;;;31.80;84.70;;;;;;5034903;28;20458;-74
2022/07/03 08:35:12;;;;;;;3.83;2.70;;;31.90;82.60;;;;;;5038420;28;20901;-74
2022/07/03 08:37:42;;;;;;;4.60;3.00;;;31.90;81.70;;;;;;5046488;28;20638;-75
2022/07/03 08:40:10;;;;;;;6.00;4.00;;;31.70;81.00;;;;;;5051347;28;20458;-73
2022/07/03 08:42:39;;;;;;;5.83;3.20;;;32.30;83.10;;;;;;5047932;28;20544;-74
2022/07/03 08:45:08;;;;;;;4.77;2.53;;;32.80;79.60;;;;;;5051101;28;20783;-72
2022/07/03 08:47:38;;;;;;;5.27;3.07;;;32.10;80.40;;;;;;5047548;28;20466;-73
2022/07/03 08:50:07;;;;;;;3.47;2.57;;;31.80;82.00;;;;;;5050649;28;20839;-74
2022/07/03 08:52:35;;;;;;;3.73;2.73;;;31.80;79.30;;;;;;5045964;28;20460;-73
2022/07/03 08:55:05;;;;;;;6.50;3.20;;;31.70;81.40;;;;;;5042531;28;20465;-75
2022/07/03 08:57:32;;;;;;;3.90;2.57;;;32.10;81.70;;;;;;5044536;28;20460;-73
2022/07/03 09:00:01;;;;;;;5.43;3.07;;;32.20;79.80;;;;;;5042863;28;20534;-73
2022/07/03 09:02:30;;;;;;;6.73;3.40;;;31.20;79.00;;;;;;5040597;28;20464;-73
2022/07/03 09:04:58;;;;;;;3.17;2.00;;;31.80;77.30;;;;;;5043590;28;20470;-72
2022/07/03 09:07:26;;;;;;;3.90;3.40;;;32.60;80.20;;;;;;5028068;28;20949;-74
2022/07/03 09:09:54;;;;;;;3.13;2.83;;;33.40;75.90;;;;;;5045251;28;20482;-73
2022/07/03 09:12:23;;;;;;;6.53;2.80;;;33.10;77.40;;;;;;5042552;28;20457;-74
2022/07/03 09:14:49;;;;;;;10.27;2.83;;;33.20;73.20;;;;;;5049037;28;20473;-74
2022/07/03 09:17:17;;;;;;;3.93;3.63;;;33.10;74.30;;;;;;5052926;28;21013;-74
2022/07/03 09:19:47;;;;;;;7.93;3.00;;;33.90;72.00;;;;;;5056911;28;20466;-73
2022/07/03 09:22:25;;;;;;;4.03;3.37;;;32.90;70.80;;;;;;5061016;28;20454;-74
2022/07/03 09:24:53;;;;;;;3.90;2.60;;;33.30;70.80;;;;;;5060798;28;20815;-74
2022/07/03 09:27:22;;;;;;;3.83;3.10;;;34.10;67.20;;;;;;5053897;28;20473;-73
2022/07/03 09:30:00;;;;;;;5.23;3.17;;;33.70;67.80;;;;;;5053684;28;20592;-74
2022/07/03 09:32:31;;;;;;;4.10;2.60;;;33.90;69.20;;;;;;5049246;28;20462;-72
2022/07/03 09:35:14;;;;;;;5.43;2.30;;;34.00;69.80;;;;;;5057166;28;20519;-73
2022/07/03 09:37:42;;;;;;;2.63;2.23;;;34.60;63.90;;;;;;5044368;28;20461;-74
2022/07/03 09:40:09;;;;;;;2.63;2.10;;;34.90;64.10;;;;;;5056176;28;20459;-74
2022/07/03 09:42:37;;;;;;;2.70;2.27;;;35.00;63.00;;;;;;5055847;28;20460;-73
2022/07/03 09:45:05;;;;;;;5.50;2.77;;;35.40;60.70;;;;;;5049411;28;20476;-73
2022/07/03 09:47:33;;;;;;;3.00;2.03;;;35.30;59.80;;;;;;5053941;28;20461;-75
2022/07/03 09:50:04;;;;;;;3.40;2.53;;;34.60;64.20;;;;;;5048508;28;20485;-75
2022/07/03 09:52:34;;;;;;;7.03;2.60;;;34.20;60.90;;;;;;5047977;28;20457;-73
2022/07/03 09:55:12;;;;;;;3.50;2.70;;;34.00;61.40;;;;;;5052918;28;21015;-74
2022/07/03 09:57:41;;;;;;;2.83;1.90;;;33.30;62.70;;;;;;5054666;28;20461;-74
2022/07/03 10:00:26;;;;;;;3.40;2.17;;;32.80;67.40;;;;;;5051320;28;20522;-74
2022/07/03 10:02:59;;;;;;;4.73;2.77;;;32.90;65.90;;;;;;5060175;28;20452;-74
2022/07/03 10:05:29;;;;;;;2.83;2.20;;;33.30;63.50;;;;;;5058254;28;20461;-74
2022/07/03 10:07:58;;;;;;;2.67;2.47;;;33.40;62.60;;;;;;5056183;28;20466;-74
2022/07/03 10:10:27;;;;;;;4.80;2.93;;;34.00;62.80;;;;;;5051205;28;20487;-74
2022/07/03 10:12:56;;;;;;;2.97;2.77;;;34.30;60.30;;;;;;5052633;28;20543;-74
2022/07/03 10:15:24;;;;;;;2.87;2.27;;;34.10;62.90;;;;;;5045845;28;20595;-74
2022/07/03 10:17:54;;;;;;;2.87;2.57;;;34.60;59.60;;;;;;5056760;28;20815;-73
2022/07/03 10:20:26;;;;;;;2.50;2.30;;;34.40;59.70;;;;;;5047425;28;20465;-74
2022/07/03 10:22:54;;;;;;;4.73;2.80;;;34.70;60.10;;;;;;5057573;28;20465;-74
2022/07/03 10:25:21;;;;;;;3.90;2.47;;;34.60;59.50;;;;;;5062547;28;20457;-74
2022/07/03 10:27:49;;;;;;;3.70;2.60;;;34.00;59.10;;;;;;5055800;28;20551;-73
2022/07/03 10:30:19;;;;;;;2.70;2.10;;;34.00;59.60;;;;;;5058966;28;20485;-73
2022/07/03 10:32:47;;;;;;;4.13;2.20;;;34.10;59.80;;;;;;5049686;28;20461;-73
2022/07/03 10:35:16;;;;;;;2.80;2.50;;;34.00;62.70;;;;;;5049913;28;20487;-74
2022/07/03 10:37:52;;;;;;;2.90;2.40;;;34.60;61.00;;;;;;5045959;28;21197;-73
2022/07/03 10:46:12;;;;;;;9.23;2.37;;;36.00;57.60;;;;;;5041348;28;20504;-73
2022/07/03 10:48:53;;;;;;;3.73;2.30;;;35.30;58.60;;;;;;5041502;28;21056;-73
2022/07/03 10:51:20;;;;;;;7.57;1.90;;;35.50;56.70;;;;;;5036513;28;20506;-73
2022/07/03 10:53:47;;;;;;;2.80;2.27;;;35.80;56.40;;;;;;5042871;28;20987;-74
2022/07/03 10:56:20;;;;;;;2.40;2.20;;;34.80;56.60;;;;;;5054783;28;20491;-78
2022/07/03 10:58:56;;;;;;;3.40;2.20;;;34.20;59.20;;;;;;5063307;28;20541;-73
2022/07/03 11:01:29;;;;;;;3.37;2.03;;;33.50;59.50;;;;;;5053250;28;20480;-74
2022/07/03 11:04:00;;;;;;;4.90;2.40;;;33.10;59.10;;;;;;5049316;28;20460;-74
2022/07/03 11:07:03;;;;;;;3.70;2.53;;;32.50;60.80;;;;;;5093365;22;20495;-72
2022/07/03 11:09:30;;;;;;;6.03;2.60;;;31.80;61.20;;;;;;5041863;28;20824;-72
2022/07/03 11:11:57;;;;;;;2.07;1.67;;;31.60;62.00;;;;;;5042687;28;20487;-72
2022/07/03 11:14:25;;;;;;;3.70;1.80;;;32.80;61.90;;;;;;5044787;28;20456;-73
2022/07/03 11:17:21;;;;;;;4.30;2.10;;;33.80;61.80;;;;;;5050397;28;20484;-73
2022/07/03 11:22:37;;;;;;;8.63;1.97;;;34.60;59.80;;;;;;5055409;28;20467;-71
2022/07/03 11:25:09;;;;;;;2.30;1.80;;;34.30;58.10;;;;;;5054433;28;20484;-70
2022/07/03 11:27:36;;;;;;;2.30;2.07;;;34.00;60.00;;;;;;5054582;28;20469;-71
2022/07/03 11:30:04;;;;;;;2.60;1.67;;;34.30;58.20;;;;;;5065515;28;20461;-72
2022/07/03 11:32:53;;;;;;;2.77;1.73;;;34.70;57.30;;;;;;5051338;28;20453;-71
2022/07/03 11:35:51;;;;;;;1.80;1.67;;;34.80;56.60;;;;;;5047830;28;20582;-71
2022/07/03 11:38:25;;;;;;;2.63;1.70;;;34.50;56.80;;;;;;5049636;28;20462;-72
2022/07/03 11:40:58;;;;;;;4.10;1.67;;;35.20;57.00;;;;;;5053855;28;20461;-72
2022/07/03 11:43:25;;;;;;;2.30;1.70;;;36.10;56.70;;;;;;5062752;28;20615;-71
2022/07/03 11:45:52;;;;;;;3.10;1.80;;;34.40;56.70;;;;;;5050525;28;20859;-74
2022/07/03 11:48:22;;;;;;;2.37;1.67;;;33.80;58.80;;;;;;5048908;28;20906;-72
2022/07/03 11:50:51;;;;;;;3.00;1.60;;;33.80;57.30;;;;;;5051222;28;20480;-72
2022/07/03 11:53:23;;;;;;;3.77;1.77;;;33.90;57.80;;;;;;5053112;28;20449;-71
2022/07/03 11:55:58;;;;;;;9.30;1.73;;;34.90;58.10;;;;;;5052899;28;20670;-72
2022/07/03 11:58:27;;;;;;;5.10;2.03;;;34.30;58.00;;;;;;5037991;28;20494;-72
2022/07/03 12:00:55;;;;;;;2.33;1.90;;;33.10;58.50;;;;;;5050031;28;20460;-72
2022/07/03 12:03:25;;;;;;;1.93;1.73;;;32.90;59.10;;;;;;5049176;28;20456;-73
2022/07/03 12:05:58;;;;;;;1.87;1.40;;;33.70;59.00;;;;;;5048056;28;20575;-73
2022/07/03 12:08:27;;;;;;;11.10;2.93;;;34.60;58.70;;;;;;5046664;28;20462;-72
2022/07/03 12:10:59;;;;;;;4.20;2.00;;;35.20;56.40;;;;;;5050004;28;21195;-72
2022/07/03 12:13:26;;;;;;;7.53;2.13;;;34.30;57.90;;;;;;5037272;28;20834;-70
2022/07/03 12:15:53;;;;;;;5.20;2.20;;;33.80;58.60;;;;;;5053108;28;20853;-71
2022/07/03 12:18:20;;;;;;;3.10;2.00;;;34.10;58.10;;;;;;5034644;28;20460;-72
2022/07/03 12:20:48;;;;;;;2.10;1.70;;;33.30;56.80;;;;;;5059771;28;20518;-72
2022/07/03 12:23:15;;;;;;;2.30;1.67;;;32.70;59.00;;;;;;5051380;28;20490;-72
2022/07/03 12:25:42;;;;;;;2.87;1.93;;;33.20;57.90;;;;;;5037353;28;20489;-72
2022/07/03 12:28:11;;;;;;;2.60;1.40;;;33.60;58.40;;;;;;5042532;28;20466;-71
2022/07/03 12:30:39;;;;;;;3.77;1.77;;;33.90;55.70;;;;;;5028776;28;20957;-73
2022/07/03 12:33:07;;;;;;;3.50;2.40;;;34.50;54.50;;;;;;5043487;28;20489;-72
2022/07/03 12:35:34;;;;;;;1.80;1.40;;;34.80;54.80;;;;;;5052726;28;20485;-72
2022/07/03 12:38:03;;;;;;;1.90;1.60;;;34.00;55.90;;;;;;5041405;28;20465;-72
2022/07/03 12:40:30;;;;;;;1.70;1.20;;;33.50;56.30;;;;;;5046369;28;20530;-71
2022/07/03 12:42:58;;;;;;;3.40;1.90;;;33.90;55.10;;;;;;5037047;28;20480;-72
2022/07/03 12:45:27;;;;;;;1.77;1.67;;;33.60;54.30;;;;;;5040041;28;20479;-72
2022/07/03 12:48:01;;;;;;;2.50;1.80;;;32.60;56.40;;;;;;5047949;28;20463;-73
2022/07/03 12:50:45;;;;;;;2.60;2.13;;;32.20;57.40;;;;;;5037400;28;20467;-74
2022/07/03 12:53:27;;;;;;;1.90;1.80;;;32.30;58.80;;;;;;5043348;28;20455;-72
2022/07/03 12:55:54;;;;;;;4.73;1.90;;;32.50;58.50;;;;;;5054056;28;20668;-73
2022/07/03 13:01:25;;;;;;;1.90;1.70;;;33.10;58.90;;;;;;5037254;28;21775;-72
2022/07/03 13:03:52;;;;;;;5.90;1.80;;;32.80;59.10;;;;;;5048375;28;20842;-71
2022/07/03 13:06:21;;;;;;;2.60;1.50;;;33.20;57.60;;;;;;5031808;28;20576;-72
2022/07/03 13:08:58;;;;;;;3.77;2.00;;;32.40;58.40;;;;;;5045264;28;20477;-71
2022/07/03 13:11:31;;;;;;;2.27;1.90;;;33.10;59.60;;;;;;5053404;28;20561;-71